Time;durP1;ratioP1;P1;durP2;ratioP2;P2;SDS_P1;SDS_P2;PMS_P1;PMS_P2;Temp;Humidity;BMP_temperature;BMP_pressure;BME280_temperature;BME280_humidity;BME280_pressure;Samples;Min_cycle;Max_cycle;Signal;HPM_P1;HPM_P2
2022/11/29 00:01:36;;;;;;;8.30;5.25;;;9.20;87.70;;;;;;10861821;32;20332;-75
2022/11/29 00:07:38;;;;;;;6.97;4.57;;;9.10;87.80;;;;;;10861372;32;20054;-74
2022/11/29 00:13:40;;;;;;;5.75;4.20;;;9.00;87.90;;;;;;10861539;32;20422;-75
2022/11/29 00:19:44;;;;;;;10.10;7.22;;;8.90;87.70;;;;;;10861226;32;20058;-74
2022/11/29 00:25:45;;;;;;;5.22;3.92;;;8.90;88.00;;;;;;10861011;32;20028;-74
2022/11/29 00:31:47;;;;;;;6.55;4.32;;;8.90;87.90;;;;;;10861053;32;20036;-75
2022/11/29 00:37:49;;;;;;;4.82;2.62;;;8.90;87.90;;;;;;10860887;32;20028;-75
2022/11/29 00:43:52;;;;;;;6.12;4.12;;;9.00;87.90;;;;;;10866717;32;20063;-74
2022/11/29 00:49:54;;;;;;;7.05;4.50;;;9.00;87.80;;;;;;10853884;32;20050;-75
2022/11/29 00:55:56;;;;;;;5.65;3.47;;;9.00;87.80;;;;;;10867742;32;20023;-74
2022/11/29 01:01:58;;;;;;;5.40;3.12;;;9.00;87.80;;;;;;10862668;32;20351;-74
2022/11/29 01:08:00;;;;;;;5.15;3.50;;;9.00;87.80;;;;;;10866562;32;20032;-75
2022/11/29 01:14:03;;;;;;;7.57;4.53;;;9.10;87.80;;;;;;10866411;32;20063;-74
2022/11/29 01:20:06;;;;;;;8.57;3.60;;;9.10;87.90;;;;;;10853030;32;20046;-74
2022/11/29 01:26:15;;;;;;;5.55;3.78;;;9.10;87.80;;;;;;10865998;32;20039;-75
2022/11/29 01:32:17;;;;;;;7.37;4.87;;;9.10;87.80;;;;;;10865961;32;20040;-75
2022/11/29 01:38:20;;;;;;;9.18;5.10;;;9.10;87.80;;;;;;10861948;32;20069;-75
2022/11/29 01:44:22;;;;;;;7.43;5.55;;;9.00;87.70;;;;;;10865613;32;20024;-75
2022/11/29 01:50:24;;;;;;;7.30;4.37;;;9.00;87.70;;;;;;10864372;32;20028;-75
2022/11/29 01:56:29;;;;;;;8.05;3.70;;;9.00;87.80;;;;;;10865217;32;20305;-74
2022/11/29 02:02:37;;;;;;;6.62;5.22;;;9.00;87.90;;;;;;10851869;32;20019;-75
2022/11/29 02:08:41;;;;;;;6.05;3.75;;;9.00;87.70;;;;;;10864722;32;20027;-75
2022/11/29 02:14:52;;;;;;;6.15;3.58;;;8.90;87.70;;;;;;10864542;32;20028;-74
2022/11/29 02:21:10;;;;;;;4.03;2.50;;;8.80;87.80;;;;;;10860401;32;20027;-75
2022/11/29 02:27:35;;;;;;;8.75;3.33;;;8.90;87.90;;;;;;10851093;32;20062;-74
2022/11/29 02:34:21;;;;;;;4.82;2.92;;;8.90;87.80;;;;;;10864073;32;20015;-75
2022/11/29 02:40:51;;;;;;;5.68;3.55;;;8.90;87.80;;;;;;10862542;32;20032;-75
2022/11/29 02:47:12;;;;;;;;;;;8.90;87.80;;;;;;10865552;32;20343;-74
2022/11/29 02:53:39;;;;;;;6.72;4.30;;;8.80;87.70;;;;;;10865104;32;19935;-74
2022/11/29 03:00:28;;;;;;;9.65;5.32;;;8.80;87.60;;;;;;10865036;32;20380;-75
2022/11/29 03:07:01;;;;;;;6.22;3.95;;;8.80;87.70;;;;;;10790634;33;20325;-75
2022/11/29 03:13:09;;;;;;;6.35;3.90;;;8.70;87.70;;;;;;10737442;32;20036;-74
2022/11/29 03:19:49;;;;;;;5.45;3.72;;;8.70;87.80;;;;;;10826581;32;20071;-74
2022/11/29 03:25:54;;;;;;;6.53;3.67;;;8.80;87.80;;;;;;10826910;32;20071;-74
2022/11/29 03:32:05;;;;;;;11.12;6.05;;;8.70;87.50;;;;;;10814603;32;20024;-75
2022/11/29 03:38:29;;;;;;;8.85;4.72;;;8.70;87.60;;;;;;10823259;32;20071;-75
2022/11/29 03:44:41;;;;;;;7.65;4.12;;;8.70;87.70;;;;;;10748831;33;20040;-75
2022/11/29 03:50:50;;;;;;;9.32;6.30;;;8.70;87.90;;;;;;10852963;32;20032;-74
2022/11/29 03:56:53;;;;;;;12.25;8.57;;;8.60;87.70;;;;;;10848578;32;20050;-75
2022/11/29 04:03:09;;;;;;;10.90;5.93;;;8.60;87.90;;;;;;10847543;32;20028;-75
2022/11/29 04:09:25;;;;;;;8.60;5.32;;;8.60;87.90;;;;;;10861583;32;20066;-74
2022/11/29 04:15:55;;;;;;;7.53;5.12;;;8.60;88.00;;;;;;10863178;32;20043;-73
2022/11/29 04:22:35;;;;;;;12.15;6.87;;;8.70;87.90;;;;;;10682328;33;20022;-73
2022/11/29 04:29:01;;;;;;;10.63;6.47;;;8.70;88.00;;;;;;10669242;33;20037;-73
2022/11/29 04:35:33;;;;;;;9.70;6.35;;;8.70;88.00;;;;;;10681027;33;20152;-73
2022/11/29 04:41:56;;;;;;;9.07;6.15;;;8.70;88.00;;;;;;10681259;32;20417;-73
2022/11/29 04:48:31;;;;;;;9.27;5.95;;;8.60;87.80;;;;;;10680670;33;20036;-73
2022/11/29 04:55:17;;;;;;;9.93;6.25;;;8.60;88.10;;;;;;10689390;32;20063;-73
2022/11/29 05:01:45;;;;;;;9.70;6.25;;;8.70;87.90;;;;;;10867166;32;20300;-73
2022/11/29 05:08:16;;;;;;;9.02;6.05;;;8.90;88.00;;;;;;10865018;32;20036;-73
2022/11/29 05:14:56;;;;;;;10.07;6.93;;;9.20;88.00;;;;;;10853643;32;20023;-73
2022/11/29 05:21:16;;;;;;;8.55;5.05;;;9.30;87.90;;;;;;10852867;32;20154;-73
2022/11/29 05:27:48;;;;;;;9.73;5.15;;;9.30;88.00;;;;;;10867988;32;20040;-73
2022/11/29 05:34:12;;;;;;;9.05;5.82;;;9.30;87.70;;;;;;10855737;32;20086;-73
2022/11/29 05:40:24;;;;;;;11.10;6.78;;;9.20;87.60;;;;;;10867823;32;20031;-73
2022/11/29 05:46:49;;;;;;;12.90;6.60;;;9.20;88.00;;;;;;10867367;32;20097;-73
2022/11/29 05:52:51;;;;;;;9.07;5.72;;;9.20;87.70;;;;;;10863628;32;20050;-73
2022/11/29 05:59:05;;;;;;;9.77;7.10;;;9.20;88.20;;;;;;10866477;32;20035;-74
2022/11/29 06:05:13;;;;;;;8.75;5.62;;;9.50;88.60;;;;;;10862429;32;20027;-73
2022/11/29 06:11:15;;;;;;;9.98;6.32;;;9.70;88.40;;;;;;10865025;32;20039;-73
2022/11/29 06:18:21;;;;;;;8.88;5.40;;;9.60;87.90;;;;;;10864827;32;20035;-73
2022/11/29 06:24:31;;;;;;;9.40;6.57;;;9.50;88.00;;;;;;10843791;32;20050;-73
2022/11/29 06:31:15;;;;;;;7.95;4.72;;;9.30;88.20;;;;;;10829427;32;20352;-73
2022/11/29 06:37:45;;;;;;;10.27;6.93;;;9.10;88.40;;;;;;10751759;33;20063;-73
2022/11/29 06:43:47;;;;;;;8.02;5.28;;;9.20;88.80;;;;;;10755502;32;20032;-73
2022/11/29 06:50:04;;;;;;;8.13;4.50;;;9.30;88.80;;;;;;10361862;27;13166661;-73
2022/11/29 06:56:54;;;;;;;9.15;6.15;;;9.50;88.60;;;;;;10773287;32;20039;-73
2022/11/29 07:03:34;;;;;;;13.18;7.25;;;9.70;88.20;;;;;;10719017;33;20032;-73
2022/11/29 07:09:36;;;;;;;11.60;8.23;;;9.80;87.80;;;;;;10722118;32;20043;-73
2022/11/29 07:15:48;;;;;;;10.45;6.62;;;9.90;87.60;;;;;;10875404;32;20035;-73
2022/11/29 07:22:13;;;;;;;10.30;5.93;;;9.90;87.60;;;;;;10913342;32;20039;-74
2022/11/29 07:28:24;;;;;;;9.27;6.80;;;10.10;87.40;;;;;;10886221;32;20036;-75
2022/11/29 07:34:44;;;;;;;6.47;3.70;;;10.10;87.10;;;;;;10900151;32;20026;-75
2022/11/29 07:41:16;;;;;;;7.30;4.45;;;10.10;87.50;;;;;;11055724;32;20497;-75
2022/11/29 07:47:18;;;;;;;8.18;4.55;;;10.20;87.40;;;;;;11042267;32;20428;-75
2022/11/29 07:53:21;;;;;;;7.20;4.65;;;10.30;87.20;;;;;;11050890;32;20046;-75
2022/11/29 07:59:23;;;;;;;6.30;4.20;;;10.40;87.00;;;;;;11026416;32;20487;-75
2022/11/29 08:05:25;;;;;;;9.07;5.95;;;10.40;87.20;;;;;;11039756;32;20409;-75
2022/11/29 08:11:28;;;;;;;7.10;5.15;;;10.30;87.20;;;;;;11055928;32;20038;-75
2022/11/29 08:17:30;;;;;;;6.50;4.18;;;10.40;87.30;;;;;;11055892;32;20436;-75
2022/11/29 08:23:32;;;;;;;5.47;4.15;;;10.50;87.30;;;;;;11055868;32;20021;-75
2022/11/29 08:29:34;;;;;;;7.43;5.10;;;10.60;87.20;;;;;;11042053;32;20030;-75
2022/11/29 08:35:36;;;;;;;5.97;3.85;;;10.40;86.80;;;;;;11055621;32;20019;-75
2022/11/29 08:41:38;;;;;;;5.78;3.72;;;10.50;87.60;;;;;;11055435;32;20026;-75
2022/11/29 08:47:41;;;;;;;5.28;3.37;;;10.80;87.50;;;;;;11054848;32;20063;-75
2022/11/29 08:53:50;;;;;;;5.32;3.65;;;10.80;87.20;;;;;;11055141;32;20085;-75
2022/11/29 08:59:52;;;;;;;;;;;10.60;86.80;;;;;;11055740;32;20060;-75
2022/11/29 09:05:54;;;;;;;7.45;3.08;;;10.70;87.30;;;;;;11062192;32;19917;-75
2022/11/29 09:11:56;;;;;;;5.32;3.85;;;10.90;86.90;;;;;;11061949;32;20057;-75
2022/11/29 09:17:58;;;;;;;5.00;3.25;;;11.00;86.80;;;;;;11048130;32;20415;-75
2022/11/29 09:24:04;;;;;;;6.43;3.42;;;11.20;87.10;;;;;;11047811;32;20030;-75
2022/11/29 09:30:07;;;;;;;8.10;6.10;;;11.40;86.90;;;;;;11058714;32;20048;-73
2022/11/29 09:36:13;;;;;;;5.90;3.75;;;11.60;86.60;;;;;;11047809;32;20026;-73
2022/11/29 09:42:26;;;;;;;6.65;4.50;;;11.40;86.80;;;;;;11058317;32;20029;-73
2022/11/29 09:48:36;;;;;;;4.40;3.05;;;11.50;86.80;;;;;;11061000;32;20019;-73
2022/11/29 09:54:59;;;;;;;7.45;3.72;;;11.70;86.50;;;;;;11060806;32;20386;-74
2022/11/29 10:01:33;;;;;;;4.47;2.65;;;11.60;86.40;;;;;;11060578;32;20048;-73
2022/11/29 10:07:46;;;;;;;6.90;3.85;;;11.70;86.60;;;;;;11060358;32;20063;-73
2022/11/29 10:13:53;;;;;;;7.03;3.72;;;11.80;86.50;;;;;;11059224;32;20045;-73
2022/11/29 10:20:11;;;;;;;5.57;2.95;;;11.90;86.10;;;;;;11055433;32;20061;-73
2022/11/29 10:26:13;;;;;;;5.68;3.40;;;11.90;86.30;;;;;;11059552;32;20057;-73
2022/11/29 10:32:41;;;;;;;7.18;4.25;;;11.80;86.70;;;;;;11058494;32;20048;-73
2022/11/29 10:38:44;;;;;;;6.55;3.55;;;11.90;87.00;;;;;;11059196;32;20054;-73
2022/11/29 10:45:33;;;;;;;5.37;3.00;;;11.90;86.90;;;;;;11058281;32;20022;-73
2022/11/29 10:51:35;;;;;;;5.95;3.92;;;11.80;87.00;;;;;;11031947;32;20060;-73
2022/11/29 10:58:15;;;;;;;6.65;3.87;;;11.90;87.30;;;;;;11058467;32;20048;-74
2022/11/29 11:04:28;;;;;;;5.12;3.35;;;12.00;86.80;;;;;;11057961;32;20040;-73
2022/11/29 11:10:30;;;;;;;6.40;4.12;;;11.80;87.00;;;;;;11057681;32;20402;-73
2022/11/29 11:16:32;;;;;;;6.80;3.30;;;11.60;87.70;;;;;;11057741;32;20022;-73
2022/11/29 11:22:38;;;;;;;8.68;2.78;;;11.80;87.50;;;;;;11055699;32;20052;-75
2022/11/29 11:28:59;;;;;;;5.55;3.15;;;11.80;87.40;;;;;;11056950;32;20025;-75
2022/11/29 11:35:01;;;;;;;5.28;3.00;;;11.90;87.40;;;;;;11030338;32;20034;-75
2022/11/29 11:41:19;;;;;;;6.75;5.00;;;11.70;87.10;;;;;;11042836;32;20058;-75
2022/11/29 11:47:29;;;;;;;6.15;4.72;;;11.60;87.20;;;;;;11053218;32;20341;-75
2022/11/29 11:53:35;;;;;;;5.18;3.40;;;11.50;87.70;;;;;;11019479;32;20068;-75
2022/11/29 11:59:37;;;;;;;7.53;4.82;;;11.70;87.70;;;;;;11040485;32;20030;-75
2022/11/29 12:05:39;;;;;;;9.35;4.72;;;11.80;87.80;;;;;;11056196;32;20049;-73
2022/11/29 12:11:59;;;;;;;7.90;5.30;;;11.90;87.60;;;;;;11056166;32;20349;-73
2022/11/29 12:18:13;;;;;;;5.85;3.75;;;11.80;87.10;;;;;;11042517;32;20014;-74
2022/11/29 12:24:27;;;;;;;7.30;4.37;;;12.00;87.80;;;;;;11055909;32;20030;-73
2022/11/29 12:30:30;;;;;;;8.13;5.65;;;12.20;87.60;;;;;;11055624;32;20026;-73
2022/11/29 12:37:15;;;;;;;6.53;3.95;;;12.20;87.50;;;;;;11058401;32;20052;-73
2022/11/29 12:43:23;;;;;;;8.38;5.80;;;12.00;87.20;;;;;;10867002;32;20031;-74
2022/11/29 12:49:50;;;;;;;8.00;5.40;;;12.20;87.20;;;;;;10867936;32;20114;-73
2022/11/29 12:56:12;;;;;;;7.47;4.93;;;12.30;87.50;;;;;;10868486;32;20032;-73
2022/11/29 13:02:24;;;;;;;10.02;6.05;;;12.20;87.30;;;;;;10869736;32;20082;-73
2022/11/29 13:08:47;;;;;;;9.82;7.18;;;12.40;87.60;;;;;;10869249;32;20062;-73
2022/11/29 13:15:14;;;;;;;11.40;6.80;;;12.60;87.00;;;;;;10898635;32;20064;-73
2022/11/29 13:21:35;;;;;;;9.30;6.90;;;12.50;87.10;;;;;;11061779;32;20014;-74
2022/11/29 13:27:44;;;;;;;9.02;6.78;;;12.50;86.90;;;;;;11061272;32;20030;-74
2022/11/29 13:34:07;;;;;;;13.73;9.23;;;12.30;87.30;;;;;;11057170;32;20308;-73
2022/11/29 13:40:25;;;;;;;9.98;6.60;;;12.40;87.60;;;;;;11056979;32;20056;-75
2022/11/29 13:46:53;;;;;;;12.70;8.38;;;12.30;87.30;;;;;;11016253;32;20032;-75
2022/11/29 13:53:04;;;;;;;12.82;8.43;;;12.20;86.70;;;;;;10865411;32;20066;-75
2022/11/29 13:59:15;;;;;;;10.90;6.93;;;12.20;87.20;;;;;;10865146;32;20023;-75
2022/11/29 14:05:27;;;;;;;11.00;8.02;;;12.30;87.20;;;;;;10863077;32;20374;-75
2022/11/29 14:11:42;;;;;;;14.65;7.65;;;12.30;87.10;;;;;;10864841;32;20073;-74
2022/11/29 14:18:13;;;;;;;14.40;8.65;;;12.30;87.20;;;;;;10864704;32;20461;-75
2022/11/29 14:24:36;;;;;;;15.50;8.75;;;12.50;87.20;;;;;;10675073;32;20276;-75
2022/11/29 14:30:49;;;;;;;11.60;8.20;;;12.70;86.70;;;;;;10677656;32;20033;-75
2022/11/29 14:37:02;;;;;;;10.88;7.47;;;12.70;86.50;;;;;;10723735;33;20030;-74
2022/11/29 14:43:42;;;;;;;11.02;8.02;;;12.60;86.80;;;;;;10676535;33;20088;-74
2022/11/29 14:50:07;;;;;;;17.08;9.75;;;12.70;86.50;;;;;;10705314;27;20076;-75
2022/11/29 14:56:46;;;;;;;15.35;9.68;;;12.70;86.50;;;;;;10708912;33;20028;-75
2022/11/29 15:02:56;;;;;;;16.33;10.23;;;12.60;86.10;;;;;;10862830;32;20027;-75
2022/11/29 15:09:14;;;;;;;12.57;7.97;;;12.40;86.50;;;;;;10862290;32;20036;-74
2022/11/29 15:15:37;;;;;;;14.20;8.40;;;12.40;86.70;;;;;;10878175;32;20024;-74
2022/11/29 15:22:18;;;;;;;10.48;7.28;;;12.20;86.30;;;;;;10862439;32;20024;-75
2022/11/29 15:28:23;;;;;;;13.38;6.93;;;12.20;86.00;;;;;;10862630;32;20053;-74
2022/11/29 15:34:49;;;;;;;20.48;11.80;;;12.10;85.80;;;;;;10860941;32;20023;-74
2022/11/29 15:40:53;;;;;;;12.43;8.38;;;11.90;85.70;;;;;;10862310;32;20035;-74
2022/11/29 15:47:23;;;;;;;27.13;13.57;;;11.80;85.60;;;;;;10862178;32;20046;-74
2022/11/29 15:53:46;;;;;;;33.13;18.83;;;11.80;85.40;;;;;;10912942;32;20020;-74
2022/11/29 15:59:58;;;;;;;31.67;16.90;;;11.80;84.90;;;;;;10859578;32;20046;-74
2022/11/29 16:06:20;;;;;;;23.85;14.57;;;11.80;84.50;;;;;;10861819;32;20051;-75
2022/11/29 16:12:23;;;;;;;18.15;10.57;;;11.80;84.00;;;;;;10874142;32;20020;-74
2022/11/29 16:18:25;;;;;;;15.23;10.00;;;11.80;83.60;;;;;;10824449;33;20058;-75
2022/11/29 16:24:28;;;;;;;14.95;9.90;;;11.70;83.20;;;;;;10823370;33;20028;-75
2022/11/29 16:30:31;;;;;;;16.73;11.45;;;11.70;83.00;;;;;;10823980;33;20059;-75
2022/11/29 16:36:33;;;;;;;23.50;13.07;;;11.70;82.90;;;;;;10823975;32;20016;-75
2022/11/29 16:42:35;;;;;;;28.98;14.20;;;11.70;82.50;;;;;;10842388;32;20038;-74
2022/11/29 16:48:37;;;;;;;15.38;10.75;;;11.70;82.20;;;;;;10934932;32;20026;-74
2022/11/29 16:54:41;;;;;;;18.10;11.70;;;11.50;82.10;;;;;;11013026;32;20034;-74
2022/11/29 17:00:43;;;;;;;16.58;10.32;;;11.40;82.20;;;;;;11010665;32;20048;-74
2022/11/29 17:07:00;;;;;;;15.63;10.27;;;11.20;82.20;;;;;;11013160;32;20038;-75
2022/11/29 17:13:05;;;;;;;13.52;8.48;;;11.20;82.20;;;;;;11013401;32;20068;-73
2022/11/29 17:19:12;;;;;;;14.80;10.02;;;11.20;82.20;;;;;;11015330;32;20406;-73
2022/11/29 17:25:14;;;;;;;19.50;12.37;;;11.00;82.20;;;;;;11017688;32;20018;-73
2022/11/29 17:31:21;;;;;;;16.55;12.00;;;11.00;82.20;;;;;;11019026;32;20030;-73
2022/11/29 17:37:23;;;;;;;15.68;11.77;;;10.90;82.30;;;;;;11022820;32;20018;-73
2022/11/29 17:43:41;;;;;;;16.80;11.38;;;10.90;82.40;;;;;;11021593;32;20045;-73
2022/11/29 17:49:44;;;;;;;16.67;11.43;;;10.70;82.20;;;;;;10916391;32;20067;-73
2022/11/29 17:55:47;;;;;;;12.70;9.88;;;10.60;82.20;;;;;;10866473;32;20073;-73
2022/11/29 18:01:51;;;;;;;18.90;12.10;;;10.60;82.00;;;;;;10865387;32;20054;-73
2022/11/29 18:07:59;;;;;;;14.98;9.98;;;10.40;81.90;;;;;;10864930;32;20335;-73
2022/11/29 18:14:01;;;;;;;19.87;12.70;;;10.40;81.80;;;;;;10865169;32;20438;-73
2022/11/29 18:20:05;;;;;;;15.38;10.50;;;10.30;81.60;;;;;;10849076;32;20051;-73
2022/11/29 18:26:11;;;;;;;14.68;10.40;;;10.20;81.50;;;;;;10835488;32;20032;-73
2022/11/29 18:32:13;;;;;;;14.57;10.88;;;10.10;81.60;;;;;;10853448;32;20043;-74
2022/11/29 18:38:18;;;;;;;16.42;11.98;;;10.00;81.50;;;;;;10862709;32;20071;-74
2022/11/29 18:44:28;;;;;;;22.98;14.18;;;9.90;81.60;;;;;;10859821;32;20335;-75
2022/11/29 18:50:30;;;;;;;16.77;11.85;;;9.90;81.60;;;;;;10863791;32;20404;-75
2022/11/29 18:56:34;;;;;;;18.35;11.95;;;10.00;81.50;;;;;;10863747;32;20384;-74
2022/11/29 19:02:36;;;;;;;17.27;11.40;;;10.00;81.30;;;;;;10863325;32;20058;-74
2022/11/29 19:08:38;;;;;;;16.23;12.10;;;9.90;81.20;;;;;;10859215;32;20050;-75
2022/11/29 19:14:40;;;;;;;16.02;12.27;;;9.90;81.30;;;;;;10863869;32;20034;-74
2022/11/29 19:20:42;;;;;;;19.60;14.82;;;9.80;81.20;;;;;;10863015;32;20440;-74
2022/11/29 19:26:46;;;;;;;19.37;13.93;;;9.70;81.20;;;;;;10862198;32;20094;-75
2022/11/29 19:32:48;;;;;;;22.65;15.57;;;9.80;81.80;;;;;;10862689;32;20097;-74
2022/11/29 19:38:51;;;;;;;32.08;20.12;;;9.70;81.60;;;;;;10862460;32;20031;-74
2022/11/29 19:44:55;;;;;;;20.75;16.60;;;9.60;81.50;;;;;;10862789;32;20028;-75
2022/11/29 19:50:59;;;;;;;26.15;20.37;;;9.60;81.40;;;;;;10862057;32;20331;-74
2022/11/29 19:57:01;;;;;;;22.65;13.05;;;9.60;81.40;;;;;;10862100;32;20073;-74
2022/11/29 20:03:03;;;;;;;20.02;14.80;;;9.50;81.30;;;;;;10830274;32;20039;-74
2022/11/29 20:09:06;;;;;;;20.83;17.10;;;9.40;81.20;;;;;;10824736;33;20050;-74
2022/11/29 20:15:08;;;;;;;25.70;18.52;;;9.50;81.50;;;;;;10824844;32;20032;-74
2022/11/29 20:21:15;;;;;;;17.10;13.18;;;9.50;81.60;;;;;;10824460;33;20039;-74
2022/11/29 20:27:18;;;;;;;19.87;14.68;;;9.40;81.50;;;;;;10874604;32;20347;-74
2022/11/29 20:33:23;;;;;;;19.60;13.45;;;9.20;81.60;;;;;;10824223;33;20051;-74
2022/11/29 20:39:41;;;;;;;19.85;14.23;;;9.30;81.80;;;;;;10824147;33;20058;-73
2022/11/29 20:45:43;;;;;;;21.95;16.48;;;9.30;81.70;;;;;;10849415;32;20069;-73
2022/11/29 20:52:04;;;;;;;24.63;17.60;;;9.40;82.20;;;;;;10860669;32;20068;-73
2022/11/29 20:58:06;;;;;;;29.37;21.40;;;9.40;82.30;;;;;;10863726;32;20028;-73
2022/11/29 21:04:08;;;;;;;22.70;19.45;;;9.40;82.10;;;;;;10864986;32;20040;-73
2022/11/29 21:10:18;;;;;;;30.62;21.10;;;9.40;81.90;;;;;;10866964;32;20027;-73
2022/11/29 21:16:27;;;;;;;25.70;18.05;;;9.50;82.30;;;;;;10866798;32;20032;-73
2022/11/29 21:22:30;;;;;;;;;;;9.40;82.60;;;;;;10867131;32;20301;-73
2022/11/29 21:28:36;;;;;;;22.95;16.75;;;9.30;82.60;;;;;;10866082;32;19935;-73
2022/11/29 21:34:38;;;;;;;22.90;18.75;;;9.30;82.90;;;;;;10860889;32;20032;-73
2022/11/29 21:40:40;;;;;;;17.37;12.43;;;9.30;82.30;;;;;;10865135;32;20027;-73
2022/11/29 21:46:42;;;;;;;22.60;15.57;;;9.20;82.40;;;;;;10865898;32;20391;-73
2022/11/29 21:52:44;;;;;;;22.85;18.58;;;9.20;82.80;;;;;;10863830;32;20059;-73
2022/11/29 21:58:46;;;;;;;19.73;14.27;;;9.20;83.10;;;;;;10862195;32;20069;-75
2022/11/29 22:05:01;;;;;;;22.55;16.37;;;9.10;83.00;;;;;;10863382;32;20042;-75
2022/11/29 22:11:15;;;;;;;23.92;13.18;;;9.00;82.60;;;;;;10863129;32;20036;-75
2022/11/29 22:17:17;;;;;;;15.00;12.23;;;9.00;82.30;;;;;;10863000;32;20062;-75
2022/11/29 22:23:39;;;;;;;16.90;13.00;;;8.80;82.10;;;;;;10862771;32;20027;-75
2022/11/29 22:29:42;;;;;;;21.25;15.93;;;8.70;81.90;;;;;;10863025;32;20066;-73
2022/11/29 22:35:45;;;;;;;24.33;16.77;;;8.70;82.00;;;;;;10862892;32;20363;-73
2022/11/29 22:41:48;;;;;;;22.30;15.88;;;8.70;81.80;;;;;;10858623;32;20050;-73
2022/11/29 22:47:50;;;;;;;21.15;14.15;;;8.70;81.80;;;;;;10486816;27;12111844;-74
2022/11/29 22:53:57;;;;;;;26.42;18.30;;;8.70;81.60;;;;;;10787255;33;20059;-75
2022/11/29 22:59:59;;;;;;;26.33;21.08;;;8.50;81.80;;;;;;10786590;33;20328;-75
2022/11/29 23:06:03;;;;;;;23.98;18.80;;;8.60;82.20;;;;;;10786128;33;20051;-75
2022/11/29 23:12:05;;;;;;;18.48;13.93;;;8.50;82.10;;;;;;10786093;33;20063;-75
2022/11/29 23:18:07;;;;;;;23.27;17.77;;;8.50;81.80;;;;;;10859696;32;20031;-75
2022/11/29 23:24:09;;;;;;;24.35;16.48;;;8.50;82.20;;;;;;10862874;32;20059;-75
2022/11/29 23:30:12;;;;;;;20.00;14.93;;;8.60;82.50;;;;;;10862842;32;20028;-75
2022/11/29 23:36:16;;;;;;;19.17;15.07;;;8.50;82.50;;;;;;10862647;32;20450;-75
2022/11/29 23:42:18;;;;;;;23.17;17.62;;;8.40;82.40;;;;;;10860170;32;20031;-75
2022/11/29 23:48:20;;;;;;;18.37;13.88;;;8.40;82.40;;;;;;10862333;32;20388;-75
2022/11/29 23:54:22;;;;;;;23.80;15.52;;;8.20;82.20;;;;;;10862227;32;20024;-75
